Centennial — WDB4024 — position and weather

sailwx.info

Track history (hours):
 
Tides and Currents Weather Stations Pressure Air Temp Water Temp Dewpoint Dewpoint Depression Visibility Wind Speed Wind Dir Waves Ship Positions

Centennial

Owner: University of Washington, Friday Harbor Labs, Friday Harbor, WA. More information available from US FCC via Universal Licensing System and Coast Guard Vessel Documentation Center.

Last reported at 2015-Aug-31 20:11 UTC. Time now 2015-Sep-04 05:50 UTC.
Position N 48°28' W 122°57'.

Length 20 m.

Type: Dredging. MMSI: 369277000.

Date/timePositionNaut miles runAvg speedWind from/ knotsBaromVisibWave heightAir tempDewpointWater temp
2015-Aug-31 20:11N 48°28' W 122°57'5 7.5
2015-Aug-31 19:30N 48°33' W 122°59'1 0.9
2015-Aug-31 18:32N 48°33' W 123°01'0 0.0
2015-Aug-31 17:23N 48°33' W 123°01'0 0.0
2015-Aug-31 16:29N 48°33' W 123°01'0 0.0
2015-Aug-31 15:23N 48°33' W 123°01'0 0.0
2015-Aug-31 14:11N 48°33' W 123°01'0 0.0
2015-Aug-31 13:23N 48°33' W 123°01'0 0.0
2015-Aug-31 12:29N 48°33' W 123°01'0 0.0
2015-Aug-31 11:17N 48°33' W 123°01'0 0.0
2015-Aug-31 10:29N 48°33' W 123°01'0 0.0
2015-Aug-31 09:32N 48°33' W 123°01'0 0.0
2015-Aug-31 08:29N 48°33' W 123°01'0 0.0
2015-Aug-31 07:32N 48°33' W 123°01'0 0.0
2015-Aug-31 06:32N 48°33' W 123°01'0 0.0
2015-Aug-31 05:32N 48°33' W 123°01'0 0.0
2015-Aug-31 04:32N 48°33' W 123°01'0 0.0
2015-Aug-31 03:26N 48°33' W 123°01'0 0.0
2015-Aug-31 02:23N 48°33' W 123°01'0 0.0
2015-Aug-31 01:32N 48°33' W 123°01'0 0.0
2015-Aug-31 00:14N 48°33' W 123°01'0 0.0
2015-Aug-30 23:29N 48°33' W 123°01'0 0.0
2015-Aug-30 22:23N 48°33' W 123°01'1 0.6
2015-Aug-30 20:25N 48°34' W 122°60'1 1.4
2015-Aug-30 19:30N 48°33' W 123°01'0 0.0
2015-Aug-30 18:33N 48°33' W 123°01'2 0.9
2015-Aug-30 16:31N 48°34' W 122°60'2 1.7
2015-Aug-30 15:29N 48°33' W 123°01'0 0.0
2015-Aug-30 14:29N 48°33' W 123°01'0 0.0
2015-Aug-30 13:29N 48°33' W 123°01'0 0.0
2015-Aug-30 12:29N 48°33' W 123°01'0 0.0
2015-Aug-30 11:05N 48°33' W 123°01'0 0.0
2015-Aug-30 10:23N 48°33' W 123°01'0 0.0
2015-Aug-30 09:29N 48°33' W 123°01'0 0.0
2015-Aug-30 08:29N 48°33' W 123°01'0 0.0
2015-Aug-30 07:29N 48°33' W 123°01'0 0.0
2015-Aug-30 06:32N 48°33' W 123°01'0 0.0
2015-Aug-30 05:17N 48°33' W 123°01'0 0.0
2015-Aug-30 04:29N 48°33' W 123°01'0 0.0
2015-Aug-30 03:29N 48°33' W 123°01'0 0.0
2015-Aug-30 02:29N 48°33' W 123°01'0 0.0
2015-Aug-30 01:23N 48°33' W 123°01'0 0.0
2015-Aug-30 00:32N 48°33' W 123°01'0 0.0
2015-Aug-29 23:26N 48°33' W 123°01'0 0.0
2015-Aug-29 22:29N 48°33' W 123°01'0 0.0
2015-Aug-29 21:29N 48°33' W 123°01'0 0.0
2015-Aug-29 20:29N 48°33' W 123°01'0 0.0
2015-Aug-29 19:26N 48°33' W 123°01'0 0.0
2015-Aug-29 18:29N 48°33' W 123°01'0 0.0
2015-Aug-29 17:29N 48°33' W 123°01'0 0.0
2015-Aug-29 16:11N 48°33' W 123°01'0 0.0
2015-Aug-29 15:29N 48°33' W 123°01'0 0.0
2015-Aug-29 14:29N 48°33' W 123°01'0 0.0
2015-Aug-29 13:23N 48°33' W 123°01'0 0.0
2015-Aug-29 12:29N 48°33' W 123°01'0 0.0
2015-Aug-29 11:23N 48°33' W 123°01'0 0.0
2015-Aug-29 10:23N 48°33' W 123°01'0 0.0
2015-Aug-29 09:29N 48°33' W 123°01'0 0.0
2015-Aug-29 08:29N 48°33' W 123°01'0 0.0
2015-Aug-29 07:29N 48°33' W 123°01'0 0.0
2015-Aug-29 06:32N 48°33' W 123°01'0 0.0
2015-Aug-29 05:23N 48°33' W 123°01'0 0.0
2015-Aug-29 04:32N 48°33' W 123°01'0 0.0
2015-Aug-29 03:32N 48°33' W 123°01'0 0.0
2015-Aug-29 02:32N 48°33' W 123°01'0 0.0
2015-Aug-29 01:29N 48°33' W 123°01'0 0.0
2015-Aug-29 00:32N 48°33' W 123°01'0 0.0
2015-Aug-28 23:32N 48°33' W 123°01'0 0.0
2015-Aug-28 22:32N 48°33' W 123°01'0 0.0
2015-Aug-28 21:32N 48°33' W 123°01'0 0.0
2015-Aug-28 20:29N 48°33' W 123°01'0 0.0
2015-Aug-28 19:29N 48°33' W 123°01'0 0.0
2015-Aug-28 18:29N 48°33' W 123°01'0 0.0
2015-Aug-28 17:23N 48°33' W 123°01'0 0.0
2015-Aug-28 16:29N 48°33' W 123°01'0 0.0
2015-Aug-28 15:29N 48°33' W 123°01'0 0.0
2015-Aug-28 14:23N 48°33' W 123°01'0 0.0
2015-Aug-28 13:23N 48°33' W 123°01'0 0.0
2015-Aug-28 12:29N 48°33' W 123°01'0 0.0
2015-Aug-28 11:29N 48°33' W 123°01'0 0.0
2015-Aug-28 10:29N 48°33' W 123°01'0 0.0
2015-Aug-28 09:30N 48°33' W 123°01'0 0.0
2015-Aug-28 08:29N 48°33' W 123°01'0 0.0
2015-Aug-28 07:11N 48°33' W 123°01'0 0.0
2015-Aug-28 06:32N 48°33' W 123°01'0 0.0
2015-Aug-28 05:30N 48°33' W 123°01'0 0.0
2015-Aug-28 04:32N 48°33' W 123°01'0 0.0
2015-Aug-28 03:23N 48°33' W 123°01'0 0.0
2015-Aug-28 02:24N 48°33' W 123°01'0 0.0
2015-Aug-28 01:33N 48°33' W 123°01'0 0.0
2015-Aug-28 00:30N 48°33' W 123°01'0 0.0
2015-Aug-27 23:30N 48°33' W 123°01'0 0.0
2015-Aug-27 22:33N 48°33' W 123°01'0 0.0
2015-Aug-27 21:30N 48°33' W 123°01'0 0.0
2015-Aug-27 20:30N 48°33' W 123°01'0 0.0
2015-Aug-27 19:30N 48°33' W 123°01'0 0.0
2015-Aug-27 18:30N 48°33' W 123°01'0 0.0
2015-Aug-27 17:18N 48°33' W 123°01'0 0.0
2015-Aug-27 11:33N 48°33' W 123°01'0 0.0
2015-Aug-27 07:06N 48°33' W 123°01'0 0.0
2015-Aug-27 06:30N 48°33' W 123°01'0 0.0
2015-Aug-27 05:33N 48°33' W 123°01'0 0.0
2015-Aug-27 04:18N 48°33' W 123°01'0 0.0
2015-Aug-27 03:24N 48°33' W 123°01'0 0.0
2015-Aug-27 02:30N 48°33' W 123°01'0 0.0
2015-Aug-27 01:30N 48°33' W 123°01'0 0.0
2015-Aug-27 00:30N 48°33' W 123°01'0 0.0
2015-Aug-26 23:30N 48°33' W 123°01'0 0.0
2015-Aug-26 22:30N 48°33' W 123°01'0 0.0
2015-Aug-26 21:30N 48°33' W 123°01'0 0.0
2015-Aug-26 20:33N 48°33' W 123°01'0 0.0
2015-Aug-26 19:24N 48°33' W 123°01'0 0.0
2015-Aug-26 18:33N 48°33' W 123°01'0 0.0
2015-Aug-26 17:33N 48°33' W 123°01'0 0.0
2015-Aug-26 16:33N 48°33' W 123°01'0 0.0
2015-Aug-26 15:30N 48°33' W 123°01'0 0.0
2015-Aug-26 14:18N 48°33' W 123°01'0 0.0
2015-Aug-26 13:21N 48°33' W 123°01'0 0.0
2015-Aug-26 12:21N 48°33' W 123°01'0 0.0
2015-Aug-26 11:30N 48°33' W 123°01'0 0.0
2015-Aug-26 10:33N 48°33' W 123°01'0 0.0
2015-Aug-26 09:33N 48°33' W 123°01'0 0.0
2015-Aug-26 08:33N 48°33' W 123°01'0 0.0
2015-Aug-26 07:12N 48°33' W 123°01'0 0.0
2015-Aug-26 06:27N 48°33' W 123°01'0 0.0
2015-Aug-26 05:24N 48°33' W 123°01'0 0.0
2015-Aug-26 04:33N 48°33' W 123°01'0 0.0
2015-Aug-26 03:30N 48°33' W 123°01'0 0.0
2015-Aug-26 02:30N 48°33' W 123°01'0 0.0
2015-Aug-26 01:30N 48°33' W 123°01'0 0.0
2015-Aug-26 00:33N 48°33' W 123°01'0 0.0
2015-Aug-25 23:33N 48°33' W 123°01'0 0.0
2015-Aug-25 22:33N 48°33' W 123°01'0 0.0
2015-Aug-25 21:33N 48°33' W 123°01'0 0.0
2015-Aug-25 20:24N 48°33' W 123°01'0 0.0
2015-Aug-25 19:33N 48°33' W 123°01'0 0.0
2015-Aug-25 18:33N 48°33' W 123°01'0 0.0
2015-Aug-25 17:30N 48°33' W 123°01'0 0.0
2015-Aug-25 16:30N 48°33' W 123°01'0 0.0
2015-Aug-25 15:27N 48°33' W 123°01'0 0.0
2015-Aug-25 14:33N 48°33' W 123°01'0 0.0
2015-Aug-25 13:30N 48°33' W 123°01'0 0.0
2015-Aug-25 12:33N 48°33' W 123°01'0 0.0
2015-Aug-25 11:33N 48°33' W 123°01'0 0.0
2015-Aug-25 10:33N 48°33' W 123°01'0 0.0
2015-Aug-25 09:21N 48°33' W 123°01'0 0.0
2015-Aug-25 08:21N 48°33' W 123°01'0 0.0
2015-Aug-25 07:33N 48°33' W 123°01'0 0.0
2015-Aug-25 06:33N 48°33' W 123°01'0 0.0
2015-Aug-25 05:30N 48°33' W 123°01'0 0.0
2015-Aug-25 04:30N 48°33' W 123°01'0 0.0
2015-Aug-25 03:30N 48°33' W 123°01'0 0.0
2015-Aug-25 02:33N 48°33' W 123°01'0 0.0
2015-Aug-25 01:33N 48°33' W 123°01'0 0.0
2015-Aug-25 00:30N 48°33' W 123°01'0 0.0
2015-Aug-24 23:27N 48°33' W 123°01'0 0.0
2015-Aug-24 22:30N 48°33' W 123°01'0 0.0
2015-Aug-24 20:27N 48°33' W 123°01'0 0.0
2015-Aug-24 19:27N 48°33' W 123°01'0 0.0
2015-Aug-24 18:30N 48°33' W 123°01'0 0.0
2015-Aug-24 17:33N 48°33' W 123°01'0 0.0
2015-Aug-24 16:33N 48°33' W 123°01'0 0.0
2015-Aug-24 15:33N 48°33' W 123°01'0 0.0
2015-Aug-24 14:33N 48°33' W 123°01'0 0.0
2015-Aug-24 13:30N 48°33' W 123°01'0 0.0
2015-Aug-24 12:33N 48°33' W 123°01'0 0.0
2015-Aug-24 11:30N 48°33' W 123°01'0 0.0
2015-Aug-24 10:24N 48°33' W 123°01'0 0.0
2015-Aug-24 09:33N 48°33' W 123°01'0 0.0
2015-Aug-24 08:30N 48°33' W 123°01'0 0.0
2015-Aug-24 07:30N 48°33' W 123°01'0 0.0
2015-Aug-24 06:33N 48°33' W 123°01'0 0.0
2015-Aug-24 05:30N 48°33' W 123°01'0 0.0
2015-Aug-24 04:24N 48°33' W 123°01'0 0.0
2015-Aug-24 03:30N 48°33' W 123°01'0 0.0
2015-Aug-24 02:30N 48°33' W 123°01'0 0.0
2015-Aug-24 01:33N 48°33' W 123°01'0 0.0
2015-Aug-24 00:27N 48°33' W 123°01'0 0.0
2015-Aug-23 23:33N 48°33' W 123°01'0 0.0
2015-Aug-23 22:33N 48°33' W 123°01'0 0.0
2015-Aug-23 21:33N 48°33' W 123°01'0 0.0
2015-Aug-23 20:33N 48°33' W 123°01'0 0.0
2015-Aug-23 19:33N 48°33' W 123°01'0 0.0
2015-Aug-23 18:33N 48°33' W 123°01'0 0.0
2015-Aug-23 17:27N 48°33' W 123°01'0 0.0
2015-Aug-23 16:24N 48°33' W 123°01'0 0.0
2015-Aug-23 15:30N 48°33' W 123°01'0 0.0
2015-Aug-23 14:30N 48°33' W 123°01'0 0.0
2015-Aug-23 13:33N 48°33' W 123°01'0 0.0
2015-Aug-23 12:30N 48°33' W 123°01'0 0.0
2015-Aug-23 11:27N 48°33' W 123°01'0 0.0
2015-Aug-23 10:27N 48°33' W 123°01'0 0.0
2015-Aug-23 09:28N 48°33' W 123°01'0 0.0
2015-Aug-23 08:31N 48°33' W 123°01'0 0.0
2015-Aug-23 07:28N 48°33' W 123°01'0 0.0
2015-Aug-23 06:25N 48°33' W 123°01'0 0.0
2015-Aug-23 05:25N 48°33' W 123°01'0 0.0
2015-Aug-23 04:25N 48°33' W 123°01'0 0.0
2015-Aug-23 03:28N 48°33' W 123°01'0 0.0
2015-Aug-23 02:31N 48°33' W 123°01'0 0.0
2015-Aug-23 01:31N 48°33' W 123°01'0 0.0
2015-Aug-22 23:31N 48°33' W 123°01'0 0.0
2015-Aug-22 22:25N 48°33' W 123°01'0 0.0
2015-Aug-22 21:28N 48°33' W 123°01'4 3.8
2015-Aug-22 20:23N 48°37' W 123°02'  
Track history (hours):
 
Tides and Currents Weather Stations Pressure Air Temp Water Temp Dewpoint Dewpoint Depression Visibility Wind Speed Wind Dir Waves Ship Positions

Centennial

Owner: University of Washington, Friday Harbor Labs, Friday Harbor, WA. More information available from US FCC via Universal Licensing System and Coast Guard Vessel Documentation Center.

Last reported at 2015-Aug-31 20:11 UTC. Time now 2015-Sep-04 05:50 UTC.
Position N 48°28' W 122°57'.

Length 20 m.

Type: Dredging. MMSI: 369277000.

Date/timePositionNaut miles runAvg speedWind from/ knotsBaromVisibWave heightAir tempDewpointWater temp
2015-Aug-31 20:11N 48°28' W 122°57'5 7.5
2015-Aug-31 19:30N 48°33' W 122°59'1 0.9
2015-Aug-31 18:32N 48°33' W 123°01'0 0.0
2015-Aug-31 17:23N 48°33' W 123°01'0 0.0
2015-Aug-31 16:29N 48°33' W 123°01'0 0.0
2015-Aug-31 15:23N 48°33' W 123°01'0 0.0
2015-Aug-31 14:11N 48°33' W 123°01'0 0.0
2015-Aug-31 13:23N 48°33' W 123°01'0 0.0
2015-Aug-31 12:29N 48°33' W 123°01'0 0.0
2015-Aug-31 11:17N 48°33' W 123°01'0 0.0
2015-Aug-31 10:29N 48°33' W 123°01'0 0.0
2015-Aug-31 09:32N 48°33' W 123°01'0 0.0
2015-Aug-31 08:29N 48°33' W 123°01'0 0.0
2015-Aug-31 07:32N 48°33' W 123°01'0 0.0
2015-Aug-31 06:32N 48°33' W 123°01'0 0.0
2015-Aug-31 05:32N 48°33' W 123°01'0 0.0
2015-Aug-31 04:32N 48°33' W 123°01'0 0.0
2015-Aug-31 03:26N 48°33' W 123°01'0 0.0
2015-Aug-31 02:23N 48°33' W 123°01'0 0.0
2015-Aug-31 01:32N 48°33' W 123°01'0 0.0
2015-Aug-31 00:14N 48°33' W 123°01'0 0.0
2015-Aug-30 23:29N 48°33' W 123°01'0 0.0
2015-Aug-30 22:23N 48°33' W 123°01'1 0.6
2015-Aug-30 20:25N 48°34' W 122°60'1 1.4
2015-Aug-30 19:30N 48°33' W 123°01'0 0.0
2015-Aug-30 18:33N 48°33' W 123°01'2 0.9
2015-Aug-30 16:31N 48°34' W 122°60'2 1.7
2015-Aug-30 15:29N 48°33' W 123°01'0 0.0
2015-Aug-30 14:29N 48°33' W 123°01'0 0.0
2015-Aug-30 13:29N 48°33' W 123°01'0 0.0
2015-Aug-30 12:29N 48°33' W 123°01'0 0.0
2015-Aug-30 11:05N 48°33' W 123°01'0 0.0
2015-Aug-30 10:23N 48°33' W 123°01'0 0.0
2015-Aug-30 09:29N 48°33' W 123°01'0 0.0
2015-Aug-30 08:29N 48°33' W 123°01'0 0.0
2015-Aug-30 07:29N 48°33' W 123°01'0 0.0
2015-Aug-30 06:32N 48°33' W 123°01'0 0.0
2015-Aug-30 05:17N 48°33' W 123°01'0 0.0
2015-Aug-30 04:29N 48°33' W 123°01'0 0.0
2015-Aug-30 03:29N 48°33' W 123°01'0 0.0
2015-Aug-30 02:29N 48°33' W 123°01'0 0.0
2015-Aug-30 01:23N 48°33' W 123°01'0 0.0
2015-Aug-30 00:32N 48°33' W 123°01'0 0.0
2015-Aug-29 23:26N 48°33' W 123°01'0 0.0
2015-Aug-29 22:29N 48°33' W 123°01'0 0.0
2015-Aug-29 21:29N 48°33' W 123°01'0 0.0
2015-Aug-29 20:29N 48°33' W 123°01'0 0.0
2015-Aug-29 19:26N 48°33' W 123°01'0 0.0
2015-Aug-29 18:29N 48°33' W 123°01'0 0.0
2015-Aug-29 17:29N 48°33' W 123°01'0 0.0
2015-Aug-29 16:11N 48°33' W 123°01'0 0.0
2015-Aug-29 15:29N 48°33' W 123°01'0 0.0
2015-Aug-29 14:29N 48°33' W 123°01'0 0.0
2015-Aug-29 13:23N 48°33' W 123°01'0 0.0
2015-Aug-29 12:29N 48°33' W 123°01'0 0.0
2015-Aug-29 11:23N 48°33' W 123°01'0 0.0
2015-Aug-29 10:23N 48°33' W 123°01'0 0.0
2015-Aug-29 09:29N 48°33' W 123°01'0 0.0
2015-Aug-29 08:29N 48°33' W 123°01'0 0.0
2015-Aug-29 07:29N 48°33' W 123°01'0 0.0
2015-Aug-29 06:32N 48°33' W 123°01'0 0.0
2015-Aug-29 05:23N 48°33' W 123°01'0 0.0
2015-Aug-29 04:32N 48°33' W 123°01'0 0.0
2015-Aug-29 03:32N 48°33' W 123°01'0 0.0
2015-Aug-29 02:32N 48°33' W 123°01'0 0.0
2015-Aug-29 01:29N 48°33' W 123°01'0 0.0
2015-Aug-29 00:32N 48°33' W 123°01'0 0.0
2015-Aug-28 23:32N 48°33' W 123°01'0 0.0
2015-Aug-28 22:32N 48°33' W 123°01'0 0.0
2015-Aug-28 21:32N 48°33' W 123°01'0 0.0
2015-Aug-28 20:29N 48°33' W 123°01'0 0.0
2015-Aug-28 19:29N 48°33' W 123°01'0 0.0
2015-Aug-28 18:29N 48°33' W 123°01'0 0.0
2015-Aug-28 17:23N 48°33' W 123°01'0 0.0
2015-Aug-28 16:29N 48°33' W 123°01'0 0.0
2015-Aug-28 15:29N 48°33' W 123°01'0 0.0
2015-Aug-28 14:23N 48°33' W 123°01'0 0.0
2015-Aug-28 13:23N 48°33' W 123°01'0 0.0
2015-Aug-28 12:29N 48°33' W 123°01'0 0.0
2015-Aug-28 11:29N 48°33' W 123°01'0 0.0
2015-Aug-28 10:29N 48°33' W 123°01'0 0.0
2015-Aug-28 09:30N 48°33' W 123°01'0 0.0
2015-Aug-28 08:29N 48°33' W 123°01'0 0.0
2015-Aug-28 07:11N 48°33' W 123°01'0 0.0
2015-Aug-28 06:32N 48°33' W 123°01'0 0.0
2015-Aug-28 05:30N 48°33' W 123°01'0 0.0
2015-Aug-28 04:32N 48°33' W 123°01'0 0.0
2015-Aug-28 03:23N 48°33' W 123°01'0 0.0
2015-Aug-28 02:24N 48°33' W 123°01'0 0.0
2015-Aug-28 01:33N 48°33' W 123°01'0 0.0
2015-Aug-28 00:30N 48°33' W 123°01'0 0.0
2015-Aug-27 23:30N 48°33' W 123°01'0 0.0
2015-Aug-27 22:33N 48°33' W 123°01'0 0.0
2015-Aug-27 21:30N 48°33' W 123°01'0 0.0
2015-Aug-27 20:30N 48°33' W 123°01'0 0.0
2015-Aug-27 19:30N 48°33' W 123°01'0 0.0
2015-Aug-27 18:30N 48°33' W 123°01'0 0.0
2015-Aug-27 17:18N 48°33' W 123°01'0 0.0
2015-Aug-27 11:33N 48°33' W 123°01'0 0.0
2015-Aug-27 07:06N 48°33' W 123°01'0 0.0
2015-Aug-27 06:30N 48°33' W 123°01'0 0.0
2015-Aug-27 05:33N 48°33' W 123°01'0 0.0
2015-Aug-27 04:18N 48°33' W 123°01'0 0.0
2015-Aug-27 03:24N 48°33' W 123°01'0 0.0
2015-Aug-27 02:30N 48°33' W 123°01'0 0.0
2015-Aug-27 01:30N 48°33' W 123°01'0 0.0
2015-Aug-27 00:30N 48°33' W 123°01'0 0.0
2015-Aug-26 23:30N 48°33' W 123°01'0 0.0
2015-Aug-26 22:30N 48°33' W 123°01'0 0.0
2015-Aug-26 21:30N 48°33' W 123°01'0 0.0
2015-Aug-26 20:33N 48°33' W 123°01'0 0.0
2015-Aug-26 19:24N 48°33' W 123°01'0 0.0
2015-Aug-26 18:33N 48°33' W 123°01'0 0.0
2015-Aug-26 17:33N 48°33' W 123°01'0 0.0
2015-Aug-26 16:33N 48°33' W 123°01'0 0.0
2015-Aug-26 15:30N 48°33' W 123°01'0 0.0
2015-Aug-26 14:18N 48°33' W 123°01'0 0.0
2015-Aug-26 13:21N 48°33' W 123°01'0 0.0
2015-Aug-26 12:21N 48°33' W 123°01'0 0.0
2015-Aug-26 11:30N 48°33' W 123°01'0 0.0
2015-Aug-26 10:33N 48°33' W 123°01'0 0.0
2015-Aug-26 09:33N 48°33' W 123°01'0 0.0
2015-Aug-26 08:33N 48°33' W 123°01'0 0.0
2015-Aug-26 07:12N 48°33' W 123°01'0 0.0
2015-Aug-26 06:27N 48°33' W 123°01'0 0.0
2015-Aug-26 05:24N 48°33' W 123°01'0 0.0
2015-Aug-26 04:33N 48°33' W 123°01'0 0.0
2015-Aug-26 03:30N 48°33' W 123°01'0 0.0
2015-Aug-26 02:30N 48°33' W 123°01'0 0.0
2015-Aug-26 01:30N 48°33' W 123°01'0 0.0
2015-Aug-26 00:33N 48°33' W 123°01'0 0.0
2015-Aug-25 23:33N 48°33' W 123°01'0 0.0
2015-Aug-25 22:33N 48°33' W 123°01'0 0.0
2015-Aug-25 21:33N 48°33' W 123°01'0 0.0
2015-Aug-25 20:24N 48°33' W 123°01'0 0.0
2015-Aug-25 19:33N 48°33' W 123°01'0 0.0
2015-Aug-25 18:33N 48°33' W 123°01'0 0.0
2015-Aug-25 17:30N 48°33' W 123°01'0 0.0
2015-Aug-25 16:30N 48°33' W 123°01'0 0.0
2015-Aug-25 15:27N 48°33' W 123°01'0 0.0
2015-Aug-25 14:33N 48°33' W 123°01'0 0.0
2015-Aug-25 13:30N 48°33' W 123°01'0 0.0
2015-Aug-25 12:33N 48°33' W 123°01'0 0.0
2015-Aug-25 11:33N 48°33' W 123°01'0 0.0
2015-Aug-25 10:33N 48°33' W 123°01'0 0.0
2015-Aug-25 09:21N 48°33' W 123°01'0 0.0
2015-Aug-25 08:21N 48°33' W 123°01'0 0.0
2015-Aug-25 07:33N 48°33' W 123°01'0 0.0
2015-Aug-25 06:33N 48°33' W 123°01'0 0.0
2015-Aug-25 05:30N 48°33' W 123°01'0 0.0
2015-Aug-25 04:30N 48°33' W 123°01'0 0.0
2015-Aug-25 03:30N 48°33' W 123°01'0 0.0
2015-Aug-25 02:33N 48°33' W 123°01'0 0.0
2015-Aug-25 01:33N 48°33' W 123°01'0 0.0
2015-Aug-25 00:30N 48°33' W 123°01'0 0.0
2015-Aug-24 23:27N 48°33' W 123°01'0 0.0
2015-Aug-24 22:30N 48°33' W 123°01'0 0.0
2015-Aug-24 20:27N 48°33' W 123°01'0 0.0
2015-Aug-24 19:27N 48°33' W 123°01'0 0.0
2015-Aug-24 18:30N 48°33' W 123°01'0 0.0
2015-Aug-24 17:33N 48°33' W 123°01'0 0.0
2015-Aug-24 16:33N 48°33' W 123°01'0 0.0
2015-Aug-24 15:33N 48°33' W 123°01'0 0.0
2015-Aug-24 14:33N 48°33' W 123°01'0 0.0
2015-Aug-24 13:30N 48°33' W 123°01'0 0.0
2015-Aug-24 12:33N 48°33' W 123°01'0 0.0
2015-Aug-24 11:30N 48°33' W 123°01'0 0.0
2015-Aug-24 10:24N 48°33' W 123°01'0 0.0
2015-Aug-24 09:33N 48°33' W 123°01'0 0.0
2015-Aug-24 08:30N 48°33' W 123°01'0 0.0
2015-Aug-24 07:30N 48°33' W 123°01'0 0.0
2015-Aug-24 06:33N 48°33' W 123°01'0 0.0
2015-Aug-24 05:30N 48°33' W 123°01'0 0.0
2015-Aug-24 04:24N 48°33' W 123°01'0 0.0
2015-Aug-24 03:30N 48°33' W 123°01'0 0.0
2015-Aug-24 02:30N 48°33' W 123°01'0 0.0
2015-Aug-24 01:33N 48°33' W 123°01'0 0.0
2015-Aug-24 00:27N 48°33' W 123°01'0 0.0
2015-Aug-23 23:33N 48°33' W 123°01'0 0.0
2015-Aug-23 22:33N 48°33' W 123°01'0 0.0
2015-Aug-23 21:33N 48°33' W 123°01'0 0.0
2015-Aug-23 20:33N 48°33' W 123°01'0 0.0
2015-Aug-23 19:33N 48°33' W 123°01'0 0.0
2015-Aug-23 18:33N 48°33' W 123°01'0 0.0
2015-Aug-23 17:27N 48°33' W 123°01'0 0.0
2015-Aug-23 16:24N 48°33' W 123°01'0 0.0
2015-Aug-23 15:30N 48°33' W 123°01'0 0.0
2015-Aug-23 14:30N 48°33' W 123°01'0 0.0
2015-Aug-23 13:33N 48°33' W 123°01'0 0.0
2015-Aug-23 12:30N 48°33' W 123°01'0 0.0
2015-Aug-23 11:27N 48°33' W 123°01'0 0.0
2015-Aug-23 10:27N 48°33' W 123°01'0 0.0
2015-Aug-23 09:28N 48°33' W 123°01'0 0.0
2015-Aug-23 08:31N 48°33' W 123°01'0 0.0
2015-Aug-23 07:28N 48°33' W 123°01'0 0.0
2015-Aug-23 06:25N 48°33' W 123°01'0 0.0
2015-Aug-23 05:25N 48°33' W 123°01'0 0.0
2015-Aug-23 04:25N 48°33' W 123°01'0 0.0
2015-Aug-23 03:28N 48°33' W 123°01'0 0.0
2015-Aug-23 02:31N 48°33' W 123°01'0 0.0
2015-Aug-23 01:31N 48°33' W 123°01'0 0.0
2015-Aug-22 23:31N 48°33' W 123°01'0 0.0
2015-Aug-22 22:25N 48°33' W 123°01'0 0.0
2015-Aug-22 21:28N 48°33' W 123°01'4 3.8
2015-Aug-22 20:23N 48°37' W 123°02'  

Dump ship's entire track history